createdAt,value
2019-05-29T00:00:25.368Z,61.66
2019-05-29T00:02:55.983Z,60.96
2019-05-29T00:05:26.885Z,61.16
2019-05-29T00:07:57.210Z,61.67
2019-05-29T00:10:27.494Z,62.29
2019-05-29T00:12:58.344Z,62.33
2019-05-29T00:15:29.358Z,62.26
2019-05-29T00:18:00.031Z,62.88
2019-05-29T00:20:30.390Z,63.99
2019-05-29T00:23:00.851Z,63.38
2019-05-29T00:25:31.381Z,62.97
2019-05-29T00:28:02.033Z,63.53
2019-05-29T00:30:32.389Z,63.89
2019-05-29T00:33:02.866Z,64.42
2019-05-29T00:35:33.244Z,63.25
2019-05-29T00:38:04.795Z,63.25
2019-05-29T00:40:35.354Z,63.16
2019-05-29T00:43:07.301Z,63.99
2019-05-29T00:45:37.880Z,64.52
2019-05-29T00:48:09.642Z,64.61
2019-05-29T00:50:40.292Z,65.78
2019-05-29T00:53:10.646Z,65.68
2019-05-29T00:55:41.044Z,65.38
2019-05-29T00:58:12.773Z,65.21
2019-05-29T01:00:43.398Z,65.21
2019-05-29T01:03:13.821Z,65.58
2019-05-29T01:05:44.254Z,65.05
2019-05-29T01:08:14.578Z,66.07
2019-05-29T01:10:44.873Z,66.07
2019-05-29T01:13:15.691Z,66.82
2019-05-29T01:15:46.227Z,66.90
2019-05-29T01:18:17.811Z,68.14
2019-05-29T01:20:48.163Z,68.25
2019-05-29T01:23:18.464Z,68.39
2019-05-29T01:25:49.177Z,68.16
2019-05-29T01:28:20.937Z,68.99
2019-05-29T01:30:52.083Z,69.63
2019-05-29T01:33:24.572Z,70.20
2019-05-29T01:35:55.353Z,70.81
2019-05-29T01:38:25.751Z,71.42
2019-05-29T01:40:56.543Z,71.17
2019-05-29T01:43:27.718Z,72.44
2019-05-29T01:45:58.038Z,72.72
2019-05-29T01:48:29.065Z,72.63
2019-05-29T01:51:00.438Z,72.97
2019-05-29T01:53:31.095Z,72.86
2019-05-29T01:56:01.792Z,73.55
2019-05-29T01:58:32.474Z,73.73
2019-05-29T02:01:03.079Z,73.62
2019-05-29T02:03:33.694Z,74.22
2019-05-29T02:06:04.444Z,74.34
2019-05-29T02:08:34.955Z,73.46
2019-05-29T02:11:06.698Z,72.42
2019-05-29T02:13:37.772Z,72.70
2019-05-29T02:16:08.510Z,72.96
2019-05-29T02:18:38.950Z,73.54
2019-05-29T02:21:09.307Z,72.88
2019-05-29T02:23:39.885Z,72.23
2019-05-29T02:26:10.263Z,73.95
2019-05-29T02:28:41.052Z,74.76
2019-05-29T02:31:11.827Z,75.15
2019-05-29T02:33:42.118Z,75.82
2019-05-29T02:36:12.524Z,76.00
2019-05-29T02:38:42.903Z,76.77
2019-05-29T02:41:13.257Z,76.72
2019-05-29T02:43:43.601Z,76.96
2019-05-29T02:46:14.268Z,77.32
2019-05-29T02:48:44.713Z,78.20
2019-05-29T02:51:15.260Z,78.07
2019-05-29T02:53:45.902Z,78.07
2019-05-29T02:56:16.250Z,77.50
2019-05-29T02:58:47.252Z,77.22
2019-05-29T03:01:17.885Z,76.79
2019-05-29T03:03:48.512Z,76.99
2019-05-29T03:06:18.913Z,77.69
2019-05-29T03:08:49.294Z,77.51
2019-05-29T03:11:20.093Z,77.67
2019-05-29T03:13:50.702Z,77.18
2019-05-29T03:16:21.246Z,77.10
2019-05-29T03:18:51.594Z,76.66
2019-05-29T03:21:23.978Z,77.31
2019-05-29T03:23:55.860Z,77.16
2019-05-29T03:26:27.690Z,77.37
2019-05-29T03:28:58.239Z,76.73
2019-05-29T03:31:35.148Z,77.45
2019-05-29T03:34:00.804Z,77.78
2019-05-29T03:36:38.443Z,77.39
2019-05-29T03:39:03.238Z,77.89
2019-05-29T03:41:34.879Z,78.15
2019-05-29T03:44:10.080Z,78.60
2019-05-29T03:46:44.627Z,78.93
2019-05-29T03:49:10.255Z,79.12
2019-05-29T03:51:40.654Z,79.12
2019-05-29T03:54:10.951Z,79.16
2019-05-29T03:56:41.402Z,79.61
2019-05-29T03:59:11.839Z,79.72
2019-05-29T04:01:42.631Z,79.59
2019-05-29T04:04:13.103Z,79.33
2019-05-29T04:06:47.082Z,78.54
2019-05-29T04:09:15.967Z,77.57
2019-05-29T04:11:46.595Z,76.83
2019-05-29T04:14:17.171Z,76.27
2019-05-29T04:16:59.144Z,75.75
2019-05-29T04:19:24.511Z,75.17
2019-05-29T04:21:57.777Z,75.09
2019-05-29T04:24:29.861Z,74.70
2019-05-29T04:27:03.474Z,74.37
2019-05-29T04:29:34.277Z,73.94
2019-05-29T04:32:05.126Z,73.07
2019-05-29T04:34:36.329Z,72.84
2019-05-29T04:37:07.622Z,72.06
2019-05-29T04:39:39.109Z,71.61
2019-05-29T04:42:09.589Z,71.35
2019-05-29T04:44:41.393Z,71.16
2019-05-29T04:47:12.897Z,70.71
2019-05-29T04:49:43.483Z,70.76
2019-05-29T04:52:13.928Z,70.76
2019-05-29T04:54:44.601Z,71.44
2019-05-29T04:57:15.353Z,71.55
2019-05-29T04:59:45.642Z,71.35
2019-05-29T05:02:16.377Z,71.14
2019-05-29T05:04:46.742Z,69.52
2019-05-29T05:07:17.069Z,69.52
2019-05-29T05:09:47.507Z,69.36
2019-05-29T05:12:18.331Z,68.04
2019-05-29T05:14:49.756Z,65.85
2019-05-29T05:17:26.285Z,65.85
2019-05-29T05:19:52.585Z,64.02
2019-05-29T05:22:23.060Z,62.49
2019-05-29T05:24:53.446Z,61.75
2019-05-29T05:27:24.242Z,62.12
2019-05-29T05:29:54.604Z,59.34
2019-05-29T05:32:27.020Z,57.38
2019-05-29T05:34:57.067Z,58.52
2019-05-29T05:37:28.366Z,58.24
2019-05-29T05:39:59.040Z,57.86
2019-05-29T05:42:29.338Z,57.47
2019-05-29T05:44:59.756Z,57.11
2019-05-29T05:47:44.947Z,56.00
2019-05-29T05:50:02.589Z,55.68
2019-05-29T05:52:33.751Z,53.27
2019-05-29T05:55:04.743Z,52.96
2019-05-29T05:57:35.626Z,54.65
2019-05-29T06:00:16.869Z,53.52
2019-05-29T06:02:47.541Z,52.91
2019-05-29T06:05:18.151Z,53.18
2019-05-29T06:07:48.487Z,53.19
2019-05-29T06:10:18.794Z,53.82
2019-05-29T06:12:49.097Z,52.07
2019-05-29T06:15:20.132Z,52.24
2019-05-29T06:18:10.258Z,51.32
2019-05-29T06:20:22.711Z,51.24
2019-05-29T06:22:53.458Z,51.86
2019-05-29T06:25:24.745Z,52.04
2019-05-29T06:27:55.177Z,52.87
2019-05-29T06:30:25.870Z,51.78
2019-05-29T06:32:56.330Z,51.81
2019-05-29T06:35:26.588Z,51.24
2019-05-29T06:37:57.012Z,50.95
2019-05-29T06:40:34.157Z,51.36
2019-05-29T06:43:05.395Z,50.60
2019-05-29T06:45:37.807Z,49.60
2019-05-29T06:48:09.571Z,48.26
2019-05-29T06:50:41.479Z,48.11
2019-05-29T06:53:12.364Z,48.74
2019-05-29T06:55:43.924Z,49.50
2019-05-29T06:58:15.776Z,50.29
2019-05-29T07:00:46.839Z,49.01
2019-05-29T07:03:17.345Z,50.36
2019-05-29T07:05:51.331Z,47.83
2019-05-29T07:08:35.191Z,48.20
2019-05-29T07:10:52.202Z,48.76
2019-05-29T07:13:22.918Z,48.23
2019-05-29T07:15:53.235Z,48.04
2019-05-29T07:18:23.794Z,46.98
2019-05-29T07:20:54.585Z,46.34
2019-05-29T07:23:24.884Z,46.79
2019-05-29T07:25:55.365Z,46.10
2019-05-29T07:28:26.186Z,46.36
2019-05-29T07:31:02.144Z,45.53
2019-05-29T07:33:28.475Z,44.84
2019-05-29T07:35:58.770Z,45.47
2019-05-29T07:38:29.091Z,45.04
2019-05-29T07:40:59.413Z,44.92
2019-05-29T07:43:29.887Z,44.85
2019-05-29T07:46:00.270Z,44.67
2019-05-29T07:48:30.813Z,45.79
2019-05-29T07:51:07.042Z,45.92
2019-05-29T07:53:33.816Z,46.10
2019-05-29T07:56:04.739Z,44.90
2019-05-29T07:58:35.355Z,44.57
2019-05-29T08:01:13.234Z,43.71
2019-05-29T08:03:39.233Z,43.68
2019-05-29T08:06:09.805Z,42.82
2019-05-29T08:08:41.196Z,43.09
2019-05-29T08:11:12.078Z,42.76
2019-05-29T08:13:43.591Z,40.57
2019-05-29T08:16:14.097Z,40.56
2019-05-29T08:18:46.203Z,40.72
2019-05-29T08:21:16.924Z,41.69
2019-05-29T08:23:48.925Z,40.86
2019-05-29T08:26:19.705Z,40.24
2019-05-29T08:28:51.113Z,39.68
2019-05-29T08:31:22.334Z,39.57
2019-05-29T08:33:52.728Z,40.03
2019-05-29T08:36:23.370Z,39.71
2019-05-29T08:38:53.818Z,38.44
2019-05-29T08:41:24.242Z,39.51
2019-05-29T08:43:54.554Z,38.68
2019-05-29T08:46:24.890Z,38.91
2019-05-29T08:48:55.501Z,38.78
2019-05-29T08:51:26.141Z,38.91
2019-05-29T08:53:57.082Z,36.26
2019-05-29T08:56:27.366Z,37.29
2019-05-29T08:58:57.821Z,36.86
2019-05-29T09:01:28.186Z,37.39
2019-05-29T09:03:58.505Z,36.32
2019-05-29T09:06:28.824Z,35.82
2019-05-29T09:08:59.489Z,37.13
2019-05-29T09:11:29.821Z,37.28
2019-05-29T09:14:00.140Z,36.84
2019-05-29T09:16:31.156Z,36.09
2019-05-29T09:19:01.799Z,35.40
2019-05-29T09:21:32.112Z,34.02
2019-05-29T09:24:02.873Z,34.99
2019-05-29T09:26:33.653Z,34.78
2019-05-29T09:29:04.092Z,34.47
2019-05-29T09:31:34.743Z,33.01
2019-05-29T09:34:05.154Z,32.57
2019-05-29T09:36:35.435Z,32.37
2019-05-29T09:39:08.080Z,32.75
2019-05-29T09:41:38.738Z,32.62
2019-05-29T09:44:09.117Z,32.02
2019-05-29T09:46:39.454Z,31.61
2019-05-29T09:49:10.060Z,30.99
2019-05-29T09:51:40.338Z,30.81
2019-05-29T09:54:10.839Z,29.99
2019-05-29T09:56:41.167Z,30.66
2019-05-29T09:59:11.533Z,31.06
2019-05-29T10:01:42.439Z,31.53
2019-05-29T10:04:12.728Z,31.94
2019-05-29T10:06:43.085Z,32.16
2019-05-29T10:09:13.868Z,31.82
2019-05-29T10:11:44.258Z,31.00
2019-05-29T10:14:14.663Z,31.51
2019-05-29T10:16:45.270Z,30.58
2019-05-29T10:19:15.828Z,30.55
2019-05-29T10:21:46.364Z,30.10
2019-05-29T10:24:17.026Z,30.16
2019-05-29T10:26:47.361Z,29.28
2019-05-29T10:29:18.058Z,29.11
2019-05-29T10:31:49.838Z,29.28
2019-05-29T10:34:20.397Z,28.41
2019-05-29T10:36:53.586Z,28.15
2019-05-29T10:39:23.293Z,27.79
2019-05-29T10:41:53.694Z,26.86
2019-05-29T10:44:24.389Z,25.65
2019-05-29T10:46:56.524Z,25.00
2019-05-29T10:49:27.145Z,25.29
2019-05-29T10:52:13.687Z,25.39
2019-05-29T10:54:30.344Z,26.45
2019-05-29T10:57:00.697Z,26.31
2019-05-29T10:59:31.012Z,26.76
2019-05-29T11:02:01.333Z,27.19
2019-05-29T11:04:32.731Z,28.52
2019-05-29T11:07:03.531Z,30.96
2019-05-29T11:09:43.886Z,30.51
2019-05-29T11:12:06.619Z,30.63
2019-05-29T11:14:37.179Z,30.69
2019-05-29T11:17:07.539Z,30.03
2019-05-29T11:19:37.982Z,29.15
2019-05-29T11:22:25.328Z,27.91
2019-05-29T11:24:40.918Z,27.47
2019-05-29T11:27:11.216Z,27.89
2019-05-29T11:29:41.770Z,30.51
2019-05-29T11:32:12.499Z,29.85
2019-05-29T11:34:42.892Z,29.37
2019-05-29T11:37:13.193Z,28.29
2019-05-29T11:39:43.802Z,27.55
2019-05-29T11:42:26.791Z,28.93
2019-05-29T11:44:47.198Z,28.68
2019-05-29T11:47:17.487Z,27.02
2019-05-29T11:49:48.258Z,26.84
2019-05-29T11:52:24.872Z,26.46
2019-05-29T11:54:53.635Z,25.05
2019-05-29T11:57:23.151Z,24.32
2019-05-29T11:59:53.840Z,23.11
2019-05-29T12:02:24.365Z,23.20
2019-05-29T12:04:55.169Z,22.58
2019-05-29T12:07:25.595Z,21.76
2019-05-29T12:09:57.458Z,23.79
2019-05-29T12:12:27.851Z,24.57
2019-05-29T12:15:07.949Z,24.63
2019-05-29T12:17:30.391Z,25.44
2019-05-29T12:20:02.608Z,25.11
2019-05-29T12:22:32.916Z,22.49
2019-05-29T12:25:03.699Z,23.95
2019-05-29T12:27:34.439Z,21.95
2019-05-29T12:30:06.611Z,22.20
2019-05-29T12:32:37.034Z,22.65
2019-05-29T12:35:08.787Z,22.62
2019-05-29T12:37:39.532Z,23.88
2019-05-29T12:40:10.665Z,27.07
2019-05-29T12:42:44.743Z,27.96
2019-05-29T12:45:14.752Z,28.75
2019-05-29T12:47:45.508Z,28.12
2019-05-29T12:50:18.812Z,27.58
2019-05-29T12:52:49.365Z,28.48
2019-05-29T12:55:20.242Z,27.60
2019-05-29T12:57:50.535Z,26.23
2019-05-29T13:00:21.469Z,26.90
2019-05-29T13:02:51.836Z,27.26
2019-05-29T13:05:23.712Z,28.11
2019-05-29T13:07:54.790Z,28.98
2019-05-29T13:10:30.627Z,27.54
2019-05-29T13:13:03.863Z,28.59
2019-05-29T13:15:30.410Z,26.98
2019-05-29T13:18:05.805Z,27.48
2019-05-29T13:20:32.976Z,28.62
2019-05-29T13:23:05.389Z,30.27
2019-05-29T13:25:35.733Z,28.47
2019-05-29T13:28:06.404Z,27.15
2019-05-29T13:30:39.907Z,27.30
2019-05-29T13:33:10.246Z,26.81
2019-05-29T13:35:40.632Z,27.44
2019-05-29T13:38:11.446Z,27.07
2019-05-29T13:40:42.097Z,27.12
2019-05-29T13:43:15.382Z,26.84
2019-05-29T13:45:44.909Z,26.10
2019-05-29T13:48:15.484Z,26.06
2019-05-29T13:50:48.730Z,24.83
2019-05-29T13:53:18.308Z,23.59
2019-05-29T13:55:49.036Z,23.08
2019-05-29T13:58:19.372Z,20.79
2019-05-29T14:00:49.899Z,20.08
2019-05-29T14:03:20.553Z,21.49
2019-05-29T14:05:51.018Z,21.04
2019-05-29T14:08:21.576Z,20.48
2019-05-29T14:10:52.375Z,20.26
2019-05-29T14:13:23.053Z,20.40
2019-05-29T14:15:53.713Z,21.13
2019-05-29T14:18:24.222Z,21.67
2019-05-29T14:20:54.844Z,20.97
2019-05-29T14:23:25.612Z,21.91
2019-05-29T14:25:55.980Z,21.48
2019-05-29T14:28:26.309Z,21.39
2019-05-29T14:30:56.936Z,20.83
2019-05-29T14:33:27.227Z,20.91
2019-05-29T14:35:57.509Z,20.38
2019-05-29T14:38:28.169Z,18.98
2019-05-29T14:40:58.664Z,19.61
2019-05-29T14:43:29.395Z,19.50
2019-05-29T14:45:59.676Z,18.18
2019-05-29T14:48:30.038Z,17.30
2019-05-29T14:51:03.182Z,16.98
2019-05-29T14:53:32.904Z,17.59
2019-05-29T14:56:04.381Z,17.32
2019-05-29T14:58:35.260Z,14.34
2019-05-29T15:01:05.642Z,14.19
2019-05-29T15:03:35.920Z,12.48
2019-05-29T15:06:07.634Z,12.20
2019-05-29T15:08:38.272Z,13.25
2019-05-29T15:11:10.082Z,14.44
2019-05-29T15:13:41.047Z,14.84
2019-05-29T15:16:12.774Z,16.23
2019-05-29T15:18:43.618Z,16.67
2019-05-29T15:21:15.246Z,17.14
2019-05-29T15:23:46.762Z,17.85
2019-05-29T15:26:17.535Z,18.30
2019-05-29T15:28:47.972Z,29.88
2019-05-29T15:31:18.254Z,32.00
2019-05-29T15:33:48.715Z,34.20
2019-05-29T15:36:19.387Z,35.51
2019-05-29T15:38:49.842Z,33.07
2019-05-29T15:41:20.397Z,35.05
2019-05-29T15:43:51.274Z,34.51
2019-05-29T15:46:21.586Z,34.62
2019-05-29T15:48:52.267Z,35.48
2019-05-29T15:51:22.675Z,35.45
2019-05-29T15:53:53.217Z,37.12
2019-05-29T15:56:27.893Z,37.05
2019-05-29T15:58:56.067Z,38.17
2019-05-29T16:01:26.376Z,39.46
2019-05-29T16:03:57.088Z,39.93
2019-05-29T16:06:27.406Z,41.25
2019-05-29T16:08:57.762Z,43.91
2019-05-29T16:11:29.494Z,42.65
2019-05-29T16:13:59.815Z,42.39
2019-05-29T16:16:30.093Z,42.69
2019-05-29T16:19:00.818Z,41.46
2019-05-29T16:21:31.392Z,42.70
2019-05-29T16:24:02.020Z,40.85
2019-05-29T16:26:32.287Z,39.68
2019-05-29T16:29:02.734Z,40.10
2019-05-29T16:31:33.425Z,39.23
2019-05-29T16:34:03.843Z,38.04
2019-05-29T16:36:34.314Z,37.61
2019-05-29T16:39:06.749Z,36.47
2019-05-29T16:41:37.284Z,36.95
2019-05-29T16:44:07.665Z,36.35
2019-05-29T16:46:38.429Z,36.71
2019-05-29T16:49:09.164Z,36.99
2019-05-29T16:51:41.980Z,36.57
2019-05-29T16:54:12.878Z,37.14
2019-05-29T16:56:44.443Z,37.08
2019-05-29T16:59:14.969Z,36.27
2019-05-29T17:01:45.336Z,37.12
2019-05-29T17:04:15.640Z,38.00
2019-05-29T17:06:46.330Z,36.87
2019-05-29T17:09:18.305Z,37.02
2019-05-29T17:11:48.709Z,39.02
2019-05-29T17:14:20.786Z,39.89
2019-05-29T17:16:51.698Z,39.52
2019-05-29T17:19:23.062Z,39.62
2019-05-29T17:21:53.899Z,40.78
2019-05-29T17:24:25.077Z,39.88
2019-05-29T17:26:55.959Z,39.79
2019-05-29T17:29:26.300Z,39.67
2019-05-29T17:31:56.699Z,39.20
2019-05-29T17:34:28.342Z,41.63
2019-05-29T17:36:59.034Z,42.98
2019-05-29T17:39:29.305Z,41.92
2019-05-29T17:41:59.882Z,42.47
2019-05-29T17:44:30.448Z,43.05
2019-05-29T17:47:00.773Z,45.11
2019-05-29T17:49:34.577Z,46.07
2019-05-29T17:52:03.412Z,46.19
2019-05-29T17:54:33.862Z,46.02
2019-05-29T17:57:04.186Z,45.59
2019-05-29T17:59:34.967Z,47.06
2019-05-29T18:02:05.709Z,48.24
2019-05-29T18:04:36.038Z,49.43
2019-05-29T18:07:06.791Z,49.51
2019-05-29T18:09:37.439Z,50.49
2019-05-29T18:12:07.751Z,50.66
2019-05-29T18:14:38.408Z,51.20
2019-05-29T18:17:09.139Z,51.13
2019-05-29T18:19:39.495Z,51.87
2019-05-29T18:22:09.985Z,52.62
2019-05-29T18:24:40.659Z,51.66
2019-05-29T18:27:11.006Z,51.45
2019-05-29T18:29:41.387Z,51.88
2019-05-29T18:32:11.704Z,52.56
2019-05-29T18:34:42.413Z,53.79
2019-05-29T18:37:14.148Z,54.75
2019-05-29T18:39:44.498Z,55.56
2019-05-29T18:42:15.231Z,55.79
2019-05-29T18:44:45.932Z,54.93
2019-05-29T18:47:16.216Z,55.81
2019-05-29T18:49:46.786Z,56.05
2019-05-29T18:52:17.492Z,57.21
2019-05-29T18:54:47.882Z,56.95
2019-05-29T18:57:18.239Z,57.08
2019-05-29T18:59:48.532Z,57.43
2019-05-29T19:02:19.303Z,58.15
2019-05-29T19:04:49.819Z,58.34
2019-05-29T19:07:21.425Z,58.26
2019-05-29T19:09:52.072Z,58.03
2019-05-29T19:12:23.699Z,58.78
2019-05-29T19:14:54.074Z,58.75
2019-05-29T19:17:25.901Z,59.20
2019-05-29T19:19:56.819Z,59.51
2019-05-29T19:22:28.382Z,59.66
2019-05-29T19:24:58.680Z,60.94
2019-05-29T19:27:38.930Z,60.79
2019-05-29T19:30:01.156Z,60.43
2019-05-29T19:32:34.028Z,61.04
2019-05-29T19:35:05.883Z,60.42
2019-05-29T19:37:36.431Z,60.34
2019-05-29T19:40:07.827Z,60.26
2019-05-29T19:42:38.108Z,60.76
2019-05-29T19:45:09.128Z,60.03
2019-05-29T19:47:40.007Z,60.44
2019-05-29T19:50:12.112Z,60.53
2019-05-29T19:52:42.500Z,60.63
2019-05-29T19:55:13.129Z,60.66
2019-05-29T19:57:55.565Z,60.35
2019-05-29T20:00:16.159Z,59.82
2019-05-29T20:02:47.029Z,60.97
2019-05-29T20:05:17.427Z,59.45
2019-05-29T20:07:48.018Z,57.90
2019-05-29T20:10:19.814Z,59.37
2019-05-29T20:12:50.250Z,59.24
2019-05-29T20:15:21.009Z,60.17
2019-05-29T20:17:51.496Z,59.63
2019-05-29T20:20:22.014Z,59.76
2019-05-29T20:22:52.438Z,60.23
2019-05-29T20:25:22.852Z,60.96
2019-05-29T20:28:05.521Z,59.79
2019-05-29T20:30:25.574Z,59.86
2019-05-29T20:32:56.217Z,59.08
2019-05-29T20:35:26.582Z,59.08
2019-05-29T20:37:57.395Z,58.77
2019-05-29T20:40:27.815Z,59.48
2019-05-29T20:42:58.469Z,58.98
2019-05-29T20:45:29.109Z,59.62
2019-05-29T20:47:59.574Z,59.23
2019-05-29T20:50:30.932Z,59.35
2019-05-29T20:53:01.774Z,58.66
2019-05-29T20:55:32.118Z,57.87
2019-05-29T20:58:02.387Z,58.01
2019-05-29T21:00:33.933Z,58.63
2019-05-29T21:03:04.326Z,58.28
2019-05-29T21:05:34.658Z,59.27
2019-05-29T21:08:05.437Z,59.27
2019-05-29T21:10:37.089Z,59.38
2019-05-29T21:13:08.111Z,59.11
2019-05-29T21:15:39.647Z,59.40
2019-05-29T21:18:10.135Z,58.76
2019-05-29T21:20:40.769Z,58.56
2019-05-29T21:23:11.046Z,58.44
2019-05-29T21:25:41.355Z,59.53
2019-05-29T21:28:12.024Z,59.77
2019-05-29T21:30:43.718Z,59.92
2019-05-29T21:33:14.120Z,60.14
2019-05-29T21:35:44.915Z,60.74
2019-05-29T21:38:15.667Z,60.42
2019-05-29T21:40:46.728Z,59.85
2019-05-29T21:43:17.159Z,59.36
2019-05-29T21:45:47.564Z,59.60
2019-05-29T21:48:18.336Z,60.36
2019-05-29T21:50:48.645Z,60.33
2019-05-29T21:53:18.965Z,61.23
2019-05-29T21:55:49.387Z,60.60
2019-05-29T21:58:20.163Z,60.03
2019-05-29T22:00:51.578Z,59.89
2019-05-29T22:03:24.119Z,59.71
2019-05-29T22:05:55.005Z,60.63
2019-05-29T22:08:25.368Z,60.73
2019-05-29T22:10:55.869Z,60.83
2019-05-29T22:13:26.562Z,60.92
2019-05-29T22:15:56.937Z,60.78
2019-05-29T22:18:27.566Z,61.25
2019-05-29T22:20:58.775Z,61.44
2019-05-29T22:23:30.273Z,61.30
2019-05-29T22:26:01.534Z,61.49
2019-05-29T22:28:32.207Z,61.29
2019-05-29T22:31:02.675Z,61.28
2019-05-29T22:33:33.000Z,61.48
2019-05-29T22:36:03.724Z,61.16
2019-05-29T22:38:34.393Z,60.12
2019-05-29T22:41:04.882Z,59.66
2019-05-29T22:43:35.776Z,59.21
2019-05-29T22:46:06.150Z,59.37
2019-05-29T22:48:36.646Z,59.59
2019-05-29T22:51:07.100Z,58.80
2019-05-29T22:53:37.473Z,59.02
2019-05-29T22:56:07.901Z,58.17
2019-05-29T22:58:38.452Z,58.24
2019-05-29T23:01:08.765Z,58.15
2019-05-29T23:03:39.529Z,58.37
2019-05-29T23:06:10.025Z,58.04
2019-05-29T23:08:40.409Z,57.94
2019-05-29T23:11:10.845Z,57.18
2019-05-29T23:13:41.683Z,57.29
2019-05-29T23:16:12.090Z,57.56
2019-05-29T23:18:42.701Z,57.54
2019-05-29T23:21:13.056Z,57.79
2019-05-29T23:23:43.747Z,57.28
2019-05-29T23:26:15.536Z,57.94
2019-05-29T23:28:45.818Z,57.49
2019-05-29T23:31:16.438Z,57.06
2019-05-29T23:33:47.146Z,56.91
2019-05-29T23:36:17.497Z,56.81
2019-05-29T23:38:47.876Z,56.87
2019-05-29T23:41:18.473Z,57.07
2019-05-29T23:43:48.782Z,56.71
2019-05-29T23:46:19.148Z,56.31
2019-05-29T23:48:49.811Z,56.92
2019-05-29T23:51:20.139Z,56.83
2019-05-29T23:53:50.552Z,57.07
2019-05-29T23:56:20.895Z,56.97
2019-05-29T23:58:51.260Z,56.90
